• Join FlightAware (Why Join?)
  • Login
  • US Flag 
03:52AM EDT


 

Airport Tracker/Info


-or-


 

Live Flight TrackerFlight Track Log ✈ AAL2007 ✈ 20-Jun-2013 ✈ KORD - KAUS

Flight Track Log - Related Links

Times and Time Zones

All times are in EDT time to prevent confusion due to time zone crossing. See the AAL2007 flight status page for this flight to view local times or setup timezone preferences in your user account.

Time Position Orientation Groundspeed Altitude Reporting Facility
EDT Latitude Longitude Course Direction KTS MPH feet Rate Location/Type
07:44PM 41.9333 -87.9167 207° Southwest 179 206 2,300  Level Chicago TRACON
07:45PM 41.8833 -87.9167 180° South 212 244 3,800 1,260 Climbing Chicago TRACON
07:46PM 41.7009 -88.1876 201° Southwest  Level Estimated
07:46PM 41.8017 -87.9075 175° South 239 275 5,000  Level Chicago Center
07:47PM 41.6072 -88.2807 197° South  Level Estimated
07:47PM 41.7336 -87.9358 197° South 262 302 7,400  Level Chicago Center
07:48PM 41.5134 -88.3736 194° South  Level Estimated
07:48PM 41.6658 -87.9847 208° Southwest 278 320 9,700  Level Chicago Center
07:49PM 41.4195 -88.4661 207° Southwest  Level Estimated
07:49PM 41.5922 -88.0378 208° Southwest 300 345 11,700  Level Chicago Center
07:50PM 41.4922 -88.1128 209° Southwest 359 413 13,300 1,740 Climbing Chicago Center
07:51PM 41.3992 -88.1803 209° Southwest 399 459 15,300 1,980 Climbing Chicago Center
07:52PM 41.2944 -88.2283 199° South 406 467 17,400 1,980 Climbing Chicago Center
07:53PM 41.1628 -88.2894 199° South 421 484 19,500 1,740 Climbing Chicago Center
07:54PM 41.0494 -88.3394 198° South 431 496 21,100 1,320 Climbing Chicago Center
07:55PM 40.9325 -88.3911 198° South 442 509 22,300 1,080 Climbing Chicago Center
07:56PM 40.8100 -88.4478 199° South 465 535 23,400 1,200 Climbing Chicago Center
07:57PM 40.6839 -88.5031 198° South 479 551 24,800 1,560 Climbing Chicago Center
07:58PM 40.5314 -88.5717 199° South 484 557 26,700 1,500 Climbing Chicago Center
08:00PM 40.4186 -88.6206 198° South 483 556 28,000 1,260 Climbing Chicago Center
08:01PM 40.2983 -88.6933 205° Southwest 475 547 29,400 1,380 Climbing Chicago Center
08:02PM 40.1842 -88.8364 224° Southwest 471 542 30,900 1,020 Climbing Chicago Center
08:03PM 40.0922 -88.9547 225° Southwest 465 535 31,600 480 Climbing Chicago Center
08:04PM 39.9972 -89.0750 224° Southwest 471 542 32,000 180 Climbing Chicago Center
08:05PM 39.9033 -89.1958 225° Southwest 471 542 32,000  Level Chicago Center
08:05PM 39.8275 -89.2911 224° Southwest 470 541 32,000  Level Kansas City Center
08:07PM 39.7342 -89.4089 224° Southwest 467 537 32,000  Level Kansas City Center
08:08PM 39.6269 -89.5447 224° Southwest 468 539 32,000  Level Kansas City Center
08:09PM 39.5328 -89.6578 223° Southwest 465 535 32,000  Level Kansas City Center
08:10PM 39.4403 -89.7711 223° Southwest 461 531 32,000  Level Kansas City Center
08:11PM 39.3481 -89.8853 224° Southwest 460 529 32,000  Level Kansas City Center
08:12PM 39.2536 -89.9986 223° Southwest 463 533 32,000  Level Kansas City Center
08:13PM 39.1617 -90.1131 224° Southwest 462 532 32,000  Level Kansas City Center
08:14PM 39.0508 -90.2506 224° Southwest 463 533 32,000  Level Kansas City Center
08:15PM 38.9581 -90.3639 224° Southwest 464 534 32,000  Level Kansas City Center
08:16PM 38.8708 -90.4731 224° Southwest 455 524 32,000  Level Kansas City Center
08:17PM 38.7750 -90.5833 222° Southwest 455 524 32,000  Level Kansas City Center
08:18PM 38.6594 -90.7136 221° Southwest 475 547 32,000  Level Kansas City Center
08:19PM 38.5656 -90.8225 222° Southwest 464 534 32,000  Level Kansas City Center
08:20PM 38.4714 -90.9317 222° Southwest 461 531 32,000  Level Kansas City Center
08:21PM 38.3775 -91.0381 222° Southwest 457 526 32,000  Level Kansas City Center
08:22PM 38.2831 -91.1447 222° Southwest 456 525 32,000  Level Kansas City Center
08:23PM 38.1694 -91.2736 222° Southwest 458 527 32,000  Level Kansas City Center
08:24PM 38.0847 -91.3681 221° Southwest 460 529 32,000  Level Kansas City Center
08:25PM 37.9694 -91.4986 222° Southwest 460 529 32,000  Level Kansas City Center
08:26PM 37.8717 -91.6064 221° Southwest 461 531 32,000  Level Kansas City Center
08:27PM 37.7767 -91.7144 222° Southwest 457 526 32,000  Level Kansas City Center
08:28PM 37.6797 -91.8225 221° Southwest 459 528 32,000  Level Kansas City Center
08:29PM 37.5828 -91.9300 221° Southwest 460 529 32,000  Level Kansas City Center
08:30PM 37.4883 -92.0372 222° Southwest 455 524 32,000  Level Kansas City Center
08:31PM 37.3922 -92.1447 222° Southwest 456 525 32,000  Level Kansas City Center
08:32PM 37.2958 -92.2475 220° Southwest 453 521 32,000  Level Kansas City Center
08:33PM 37.1814 -92.3719 221° Southwest 452 520 32,000  Level Kansas City Center
08:34PM 37.0861 -92.4775 221° Southwest 453 521 32,000  Level Kansas City Center
08:35PM 36.9886 -92.5806 220° Southwest 455 524 32,000  Level Kansas City Center
08:36PM 36.8933 -92.6858 221° Southwest 456 525 32,000  Level Kansas City Center
08:38PM 36.7986 -92.7889 221° Southwest 452 520 32,000  Level Kansas City Center
08:39PM 36.7031 -92.8903 220° Southwest 451 519 32,000  Level Kansas City Center
08:40PM 36.6081 -92.9919 221° Southwest 450 518 32,000  Level Kansas City Center
08:41PM 36.5058 -93.1000 220° Southwest 451 519 32,000  Level Kansas City Center
08:42PM 36.4122 -93.2014 221° Southwest 449 517 32,000  Level Kansas City Center
08:42PM 36.3519 -93.2661 221° Southwest 457 526 32,000  Level Memphis Center
08:43PM 36.2558 -93.3656 220° Southwest 457 526 32,000  Level Memphis Center
08:44PM 36.1636 -93.4650 221° Southwest 462 532 32,000  Level Memphis Center
08:45PM 36.0592 -93.5561 215° Southwest 457 526 32,000  Level Memphis Center
08:46PM 35.9550 -93.6392 213° Southwest 451 519 32,000  Level Memphis Center
08:47PM 35.8525 -93.7247 214° Southwest 451 519 32,000  Level Memphis Center
08:48PM 35.7503 -93.8075 213° Southwest 451 519 32,000  Level Memphis Center
08:49PM 35.6475 -93.8978 216° Southwest 451 519 32,000  Level Memphis Center
08:50PM 35.5408 -93.9828 213° Southwest 461 531 32,000  Level Memphis Center
08:51PM 35.4361 -94.0672 213° Southwest 461 531 32,000  Level Memphis Center
08:52PM 35.3314 -94.1542 214° Southwest 455 524 32,000  Level Memphis Center
08:53PM 35.2267 -94.2386 213° Southwest 455 524 32,000  Level Memphis Center
08:54PM 35.1236 -94.3250 214° Southwest 460 529 32,000  Level Memphis Center
08:55PM 35.0189 -94.4064 212° Southwest 460 529 32,000  Level Memphis Center
08:56PM 34.9381 -94.4756 215° Southwest 456 525 32,000  Level Fort Worth Center
08:57PM 34.8356 -94.5550 212° Southwest 469 540 32,000  Level Fort Worth Center
08:58PM 34.7311 -94.6444 215° Southwest 464 534 32,000  Level Fort Worth Center
08:59PM 34.6286 -94.7258 213° Southwest 458 527 32,000  Level Fort Worth Center
09:00PM 34.5219 -94.8072 212° Southwest 458 527 32,000  Level Fort Worth Center
09:01PM 34.4192 -94.8911 214° Southwest 458 527 32,000  Level Fort Worth Center
09:02PM 34.3144 -94.9744 213° Southwest 452 520 32,000  Level Fort Worth Center
09:03PM 34.2139 -95.0528 213° Southwest 447 514 32,000  Level Fort Worth Center
09:04PM 34.1047 -95.1386 213° Southwest 455 524 32,000  Level Fort Worth Center
09:05PM 34.0019 -95.2164 212° Southwest 450 518 32,000  Level Fort Worth Center
09:06PM 33.8969 -95.2989 213° Southwest 450 518 32,000  Level Fort Worth Center
09:07PM 33.7897 -95.3817 213° Southwest 455 524 32,000  Level Fort Worth Center
09:08PM 33.6867 -95.4589 212° Southwest 450 518 32,000  Level Fort Worth Center
09:09PM 33.5792 -95.5411 213° Southwest 450 518 32,000  Level Fort Worth Center
09:10PM 33.4883 -95.6078 211° Southwest 450 518 32,000  Level Fort Worth Center
09:11PM 33.3831 -95.6894 213° Southwest 445 512 32,000  Level Fort Worth Center
09:12PM 33.2797 -95.7711 213° Southwest 450 518 32,000  Level Fort Worth Center
09:13PM 33.1764 -95.8522 213° Southwest 450 518 32,000  Level Fort Worth Center
09:14PM 33.0689 -95.9336 212° Southwest 450 518 32,000  Level Fort Worth Center
09:15PM 32.9656 -96.0119 212° Southwest 450 518 32,000  Level Fort Worth Center
09:16PM 32.8619 -96.0903 212° Southwest 450 518 32,000  Level Fort Worth Center
09:17PM 32.7564 -96.1708 213° Southwest 450 518 32,000  Level Fort Worth Center
09:18PM 32.6506 -96.2464 211° Southwest 450 518 32,000  Level Fort Worth Center
09:19PM 32.5406 -96.3167 208° Southwest 445 512 32,000  Level Fort Worth Center
09:20PM 32.4306 -96.3919 210° Southwest 445 512 32,000 -300 Level Fort Worth Center
09:21PM 32.3267 -96.4644 211° Southwest 445 512 31,500 -780 Descending Fort Worth Center
09:22PM 32.2186 -96.5392 210° Southwest 445 512 30,500 -1,140 Descending Fort Worth Center
09:23PM 32.1106 -96.6114 210° Southwest 445 512 29,300 -1,440 Descending Fort Worth Center
09:24PM 31.9983 -96.6858 209° Southwest 445 512 27,700 -1,680 Descending Fort Worth Center
09:25PM 31.8778 -96.7675 210° Southwest 457 526 26,000 -1,680 Descending Fort Worth Center
09:26PM 31.8058 -96.8150 209° Southwest 465 535 24,900 -1,440 Descending Houston Center
09:27PM 31.6917 -96.8917 210° Southwest 467 537 23,600 -1,260 Descending Houston Center
09:28PM 31.5797 -96.9656 209° Southwest 459 528 22,400 -1,200 Descending Houston Center
09:29PM 31.4681 -97.0389 209° Southwest 456 525 21,200 -1,440 Descending Houston Center
09:30PM 31.3619 -97.1094 210° Southwest 438 504 19,500 -1,680 Descending Houston Center
09:31PM 31.2569 -97.1789 209° Southwest 431 496 17,800 -1,620 Descending Houston Center
09:32PM 31.1481 -97.2339 203° Southwest 424 488 16,200 -1,800 Descending Houston Center
09:33PM 31.0222 -97.2822 198° South 408 470 14,200 -1,620 Descending Houston Center
09:34PM 30.9203 -97.3228 199° South 403 464 13,000 -600 Descending Houston Center
09:35PM 30.8158 -97.3617 198° South 398 458 13,000 -240 Level Houston Center
09:36PM 30.7264 -97.4319 214° Southwest 388 447 12,600 -840 Descending Houston Center
09:37PM 30.6631 -97.5050 225° Southwest 325 374 11,400 -1,680 Descending Houston Center
09:38PM 30.6083 -97.5747 228° Southwest 297 342 9,200 -2,400 Descending Houston Center
09:39PM 30.5497 -97.6303 219° Southwest 281 323 6,600 -2,160 Descending Houston Center
09:40PM 30.4856 -97.6722 209° Southwest 264 304 4,800 -1,200 Descending Houston Center
09:41PM 30.4261 -97.6764 183° South 234 269 4,200 -720 Descending Houston Center
09:42PM 30.3611 -97.6608 168° South 207 238 3,400 -900 Descending Houston Center
09:43PM 30.3061 -97.6594 179° South 202 232 2,400 -1,020 Descending Houston Center